Time;durP1;ratioP1;P1;durP2;ratioP2;P2;SDS_P1;SDS_P2;PMS_P1;PMS_P2;Temp;Humidity;BMP_temperature;BMP_pressure;BME280_temperature;BME280_humidity;BME280_pressure;Samples;Min_cycle;Max_cycle;Signal;HPM_P1;HPM_P2
2021/04/02 00:00:26;;;;;;;3.75;0.73;;;3.60;99.90;;;;;;5048374;28;20029;-77
2021/04/02 00:02:51;;;;;;;6.85;0.85;;;3.60;99.90;;;;;;5030770;28;20059;-77
2021/04/02 00:05:40;;;;;;;8.95;0.60;;;3.50;99.90;;;;;;5047987;28;20037;-77
2021/04/02 00:08:06;;;;;;;4.45;1.05;;;3.50;99.90;;;;;;5047758;28;20052;-77
2021/04/02 00:10:40;;;;;;;6.20;0.80;;;3.50;99.90;;;;;;5046887;28;20025;-77
2021/04/02 00:13:06;;;;;;;6.57;0.70;;;3.50;99.90;;;;;;5046974;28;20481;-77
2021/04/02 00:15:31;;;;;;;7.47;0.70;;;3.50;99.90;;;;;;5046940;28;20038;-77
2021/04/02 00:17:57;;;;;;;7.45;0.98;;;3.40;99.90;;;;;;5048424;28;20032;-77
2021/04/02 00:20:23;;;;;;;8.38;0.90;;;3.40;99.90;;;;;;5048069;28;20037;-77
2021/04/02 00:22:48;;;;;;;8.25;0.70;;;3.40;99.90;;;;;;5030184;28;20049;-78
2021/04/02 00:25:15;;;;;;;5.30;0.95;;;3.40;99.90;;;;;;5031539;28;20034;-76
2021/04/02 00:27:41;;;;;;;5.05;1.08;;;3.40;99.90;;;;;;5048208;28;20390;-77
2021/04/02 00:30:20;;;;;;;12.25;1.35;;;3.40;99.90;;;;;;5046787;28;20097;-77
2021/04/02 00:32:47;;;;;;;10.73;1.25;;;3.40;99.90;;;;;;5046618;28;20038;-77
2021/04/02 00:35:13;;;;;;;4.35;0.90;;;3.30;99.90;;;;;;5046494;28;20037;-77
2021/04/02 00:37:41;;;;;;;10.50;1.00;;;3.30;99.90;;;;;;5046454;28;20030;-77
2021/04/02 00:40:11;;;;;;;5.63;1.30;;;3.30;99.90;;;;;;5047705;28;20026;-77
2021/04/02 00:42:36;;;;;;;8.10;0.80;;;3.30;99.90;;;;;;5046543;28;20030;-77
2021/04/02 00:45:02;;;;;;;4.57;0.75;;;3.30;99.90;;;;;;5047557;28;20116;-77
2021/04/02 00:47:28;;;;;;;4.43;0.70;;;3.20;99.90;;;;;;5047679;28;20040;-77
2021/04/02 00:49:53;;;;;;;8.73;0.60;;;3.20;99.90;;;;;;5046469;28;20030;-77
2021/04/02 00:52:20;;;;;;;6.20;0.85;;;3.20;99.90;;;;;;5031114;28;20081;-77
2021/04/02 00:54:45;;;;;;;5.72;0.82;;;3.20;99.90;;;;;;5024049;28;20045;-77
2021/04/02 00:57:11;;;;;;;5.47;0.90;;;3.20;99.90;;;;;;5046201;28;20072;-76
2021/04/02 00:59:37;;;;;;;11.00;1.65;;;3.20;99.90;;;;;;5029540;28;20033;-76
2021/04/02 01:02:02;;;;;;;6.80;1.08;;;3.20;99.90;;;;;;5047257;28;20473;-77
2021/04/02 01:04:28;;;;;;;5.72;1.20;;;3.20;99.90;;;;;;5042557;28;20045;-77
2021/04/02 01:06:57;;;;;;;7.75;1.05;;;3.30;99.90;;;;;;5009498;28;20054;-77
2021/04/02 01:09:23;;;;;;;6.30;0.82;;;3.30;99.90;;;;;;5010092;28;20057;-77
2021/04/02 01:11:49;;;;;;;7.82;1.17;;;3.30;99.90;;;;;;5026019;28;20068;-77
2021/04/02 01:14:14;;;;;;;5.55;0.88;;;3.30;99.90;;;;;;5026266;28;20037;-77
2021/04/02 01:16:44;;;;;;;7.00;0.90;;;3.30;99.90;;;;;;5025976;28;20416;-77
2021/04/02 01:19:37;;;;;;;5.88;1.20;;;3.30;99.90;;;;;;5027557;28;20549;-77
2021/04/02 01:22:08;;;;;;;6.53;0.88;;;3.30;99.90;;;;;;5009520;28;20394;-77
2021/04/02 01:25:08;;;;;;;6.03;0.70;;;3.20;99.90;;;;;;5033806;28;20026;-77
2021/04/02 01:27:41;;;;;;;5.55;1.05;;;3.30;99.90;;;;;;5025786;28;20104;-76
2021/04/02 01:30:10;;;;;;;6.32;1.23;;;3.30;99.90;;;;;;5027136;28;20049;-77
2021/04/02 01:32:40;;;;;;;6.97;0.70;;;3.30;99.90;;;;;;5025793;28;20030;-77
2021/04/02 01:35:31;;;;;;;3.47;0.82;;;3.30;99.90;;;;;;5025865;28;20034;-77
2021/04/02 01:38:02;;;;;;;4.13;0.65;;;3.30;99.90;;;;;;4993057;28;20065;-77
2021/04/02 01:40:33;;;;;;;9.13;1.10;;;3.30;99.90;;;;;;5025570;28;20061;-77
2021/04/02 01:43:08;;;;;;;6.55;0.82;;;3.30;99.90;;;;;;5025528;28;20056;-77
2021/04/02 01:45:37;;;;;;;8.43;0.82;;;3.40;99.90;;;;;;5025522;28;20128;-76
2021/04/02 01:48:05;;;;;;;7.38;1.02;;;3.40;99.90;;;;;;5009142;28;20093;-77
2021/04/02 01:50:36;;;;;;;10.50;1.10;;;3.40;99.90;;;;;;5026808;28;20026;-77
2021/04/02 01:53:04;;;;;;;6.88;1.27;;;3.40;99.90;;;;;;5011080;28;20022;-77
2021/04/02 01:55:30;;;;;;;4.55;1.00;;;3.40;99.90;;;;;;5026764;28;20038;-77
2021/04/02 01:57:57;;;;;;;6.53;0.60;;;3.40;99.90;;;;;;5026619;28;20489;-77
2021/04/02 02:00:38;;;;;;;7.82;1.30;;;3.40;99.90;;;;;;5008960;28;20041;-76
2021/04/02 02:03:05;;;;;;;4.97;0.60;;;3.40;99.90;;;;;;5025343;28;20026;-77
2021/04/02 02:05:53;;;;;;;4.63;0.68;;;3.40;99.90;;;;;;5037060;28;20052;-77
2021/04/02 02:08:31;;;;;;;10.00;1.13;;;3.30;99.90;;;;;;4945994;29;20210;-78
2021/04/02 02:11:01;;;;;;;6.22;0.70;;;3.40;99.90;;;;;;4946191;29;20072;-76
2021/04/02 02:13:30;;;;;;;6.93;0.60;;;3.40;99.90;;;;;;4946090;29;20044;-76
2021/04/02 02:16:05;;;;;;;8.40;2.13;;;3.30;99.90;;;;;;4946118;29;20123;-77
2021/04/02 02:18:35;;;;;;;3.53;0.60;;;3.30;99.90;;;;;;4946036;29;20027;-77
2021/04/02 02:21:02;;;;;;;3.67;0.50;;;3.30;99.90;;;;;;4946468;29;20148;-77
2021/04/02 02:23:28;;;;;;;6.13;0.60;;;3.30;99.90;;;;;;4930240;29;20090;-77
2021/04/02 02:25:55;;;;;;;2.50;0.50;;;3.20;99.90;;;;;;4945973;29;20057;-77
2021/04/02 02:28:21;;;;;;;5.32;0.57;;;3.20;99.90;;;;;;4945889;29;20032;-77
2021/04/02 02:30:48;;;;;;;4.78;0.73;;;3.20;99.90;;;;;;4945857;29;20035;-77
2021/04/02 02:33:23;;;;;;;6.00;0.50;;;3.20;99.90;;;;;;4944708;29;20036;-77
2021/04/02 02:35:56;;;;;;;7.15;0.70;;;3.20;99.90;;;;;;4945869;29;20028;-77
2021/04/02 02:38:23;;;;;;;4.60;0.60;;;3.20;99.90;;;;;;4945805;29;20035;-77
2021/04/02 02:40:49;;;;;;;3.20;0.50;;;3.20;99.90;;;;;;4929941;29;20031;-77
2021/04/02 02:43:16;;;;;;;4.90;0.75;;;3.20;99.90;;;;;;4930240;29;20032;-77
2021/04/02 02:45:43;;;;;;;3.60;0.50;;;3.20;99.90;;;;;;4979951;28;20049;-77
2021/04/02 02:48:10;;;;;;;2.83;0.50;;;3.20;99.90;;;;;;5008640;28;20040;-77
2021/04/02 02:50:39;;;;;;;4.85;0.50;;;3.20;99.90;;;;;;5010163;28;20036;-77
2021/04/02 02:53:09;;;;;;;4.60;0.50;;;3.20;99.90;;;;;;5027751;28;20030;-77
2021/04/02 02:55:40;;;;;;;9.75;1.15;;;3.10;99.90;;;;;;5027818;28;20038;-77
2021/04/02 02:58:09;;;;;;;4.90;0.60;;;3.20;99.90;;;;;;5027674;28;20038;-77
2021/04/02 03:00:41;;;;;;;5.13;0.63;;;3.10;99.90;;;;;;5027516;28;20036;-77
2021/04/02 03:03:13;;;;;;;;;;;3.10;99.90;;;;;;5027955;28;20032;-77
2021/04/02 03:05:45;;;;;;;4.32;0.50;;;3.10;99.90;;;;;;5024303;28;19917;-77
2021/04/02 03:08:15;;;;;;;2.80;0.50;;;3.10;99.90;;;;;;5008005;28;20102;-77
2021/04/02 03:10:42;;;;;;;9.20;1.33;;;3.00;99.90;;;;;;5024365;28;20033;-78
2021/04/02 03:13:08;;;;;;;5.22;0.70;;;3.00;99.90;;;;;;5025748;28;20029;-77
2021/04/02 03:15:36;;;;;;;6.53;0.88;;;3.00;99.90;;;;;;5008243;28;20033;-77
2021/04/02 03:18:05;;;;;;;5.78;1.05;;;3.00;99.90;;;;;;5008136;28;20040;-77
2021/04/02 03:20:37;;;;;;;3.50;0.70;;;3.00;99.90;;;;;;5024206;28;20033;-77
2021/04/02 03:23:05;;;;;;;6.50;0.77;;;2.90;99.90;;;;;;5008988;28;20021;-77
2021/04/02 03:25:34;;;;;;;;;;;2.90;99.90;;;;;;5008240;28;20034;-77
2021/04/02 03:28:06;;;;;;;6.65;1.25;;;2.90;99.90;;;;;;5007966;28;19905;-77
2021/04/02 03:30:39;;;;;;;8.52;1.08;;;2.90;99.90;;;;;;5007689;28;20057;-77
2021/04/02 03:33:16;;;;;;;6.00;0.73;;;2.80;99.90;;;;;;5007807;28;20030;-77
2021/04/02 03:35:48;;;;;;;4.22;0.63;;;2.90;99.90;;;;;;4992192;28;20030;-77
2021/04/02 03:38:17;;;;;;;5.38;1.02;;;2.90;99.90;;;;;;5024303;28;20033;-77
2021/04/02 03:40:49;;;;;;;4.68;0.73;;;2.90;99.90;;;;;;5007563;28;20059;-77
2021/04/02 03:43:16;;;;;;;6.07;1.00;;;2.90;99.90;;;;;;5024135;28;20045;-77
2021/04/02 03:45:44;;;;;;;2.58;0.63;;;2.90;99.90;;;;;;5024282;28;20133;-77
2021/04/02 03:48:13;;;;;;;5.72;0.80;;;2.90;99.90;;;;;;5007612;28;20048;-77
2021/04/02 03:50:43;;;;;;;9.82;1.23;;;2.90;99.90;;;;;;5010197;28;20037;-77
2021/04/02 03:53:32;;;;;;;5.97;0.80;;;2.90;99.90;;;;;;5027361;28;20036;-77
2021/04/02 03:56:03;;;;;;;9.23;1.25;;;2.90;99.90;;;;;;5027351;28;20060;-77
2021/04/02 03:58:35;;;;;;;5.35;0.73;;;2.90;99.90;;;;;;5028037;28;20068;-77
2021/04/02 04:01:10;;;;;;;7.40;1.23;;;2.90;99.90;;;;;;5030590;28;20026;-77
2021/04/02 04:03:38;;;;;;;8.38;2.25;;;2.90;99.90;;;;;;5030750;28;20393;-77
2021/04/02 04:06:07;;;;;;;4.75;1.05;;;2.80;99.90;;;;;;5030324;28;20037;-77
2021/04/02 04:08:36;;;;;;;7.18;0.90;;;2.90;99.90;;;;;;5030541;28;20041;-77
2021/04/02 04:11:08;;;;;;;4.53;0.90;;;2.80;99.90;;;;;;5030358;28;20091;-77
2021/04/02 04:13:38;;;;;;;6.13;1.85;;;2.90;99.90;;;;;;5047153;28;20432;-77
2021/04/02 04:16:07;;;;;;;2.05;0.60;;;2.80;99.90;;;;;;5021886;28;20034;-77
2021/04/02 04:18:34;;;;;;;5.88;0.60;;;2.80;99.90;;;;;;5010636;28;20108;-77
2021/04/02 04:21:04;;;;;;;5.50;0.80;;;2.80;99.90;;;;;;5026845;28;20041;-77
2021/04/02 04:23:52;;;;;;;7.70;0.85;;;2.80;99.90;;;;;;5024426;28;20034;-77
2021/04/02 04:26:20;;;;;;;3.03;0.60;;;2.90;99.90;;;;;;5010599;28;20041;-76
2021/04/02 04:28:51;;;;;;;4.25;0.70;;;2.80;99.90;;;;;;5028377;28;20042;-77
2021/04/02 04:31:19;;;;;;;5.80;0.80;;;2.80;99.90;;;;;;5043523;28;20135;-77
2021/04/02 04:33:47;;;;;;;8.15;0.85;;;2.80;99.90;;;;;;5048027;28;20056;-77
2021/04/02 04:36:14;;;;;;;5.80;1.38;;;2.90;99.90;;;;;;5047654;28;20041;-77
2021/04/02 04:38:41;;;;;;;3.80;1.13;;;2.90;99.90;;;;;;5030042;28;20033;-77
2021/04/02 04:41:07;;;;;;;6.22;1.00;;;2.90;99.90;;;;;;5047517;28;20029;-77
2021/04/02 04:43:35;;;;;;;9.27;1.13;;;2.90;99.90;;;;;;5041748;28;20068;-77
2021/04/02 04:46:01;;;;;;;7.28;1.25;;;2.90;99.90;;;;;;5010155;28;20048;-77
2021/04/02 04:48:28;;;;;;;4.85;0.93;;;2.90;99.90;;;;;;5027840;28;20026;-78
2021/04/02 04:50:54;;;;;;;2.70;0.90;;;2.80;99.90;;;;;;5030580;28;20030;-77
2021/04/02 04:53:27;;;;;;;6.63;1.13;;;2.80;99.90;;;;;;5029762;28;20038;-77
2021/04/02 04:55:57;;;;;;;7.22;1.35;;;2.80;99.90;;;;;;5047721;28;20040;-77
2021/04/02 04:58:25;;;;;;;7.72;1.50;;;2.70;99.90;;;;;;5047519;28;20048;-77
2021/04/02 05:00:53;;;;;;;10.18;1.20;;;2.70;99.90;;;;;;5029464;28;20042;-77
2021/04/02 05:03:22;;;;;;;7.75;1.13;;;2.70;99.90;;;;;;5029704;28;20034;-76
2021/04/02 05:05:54;;;;;;;4.57;1.88;;;2.80;99.90;;;;;;5045447;28;20079;-77
2021/04/02 05:08:25;;;;;;;13.90;1.10;;;2.80;99.90;;;;;;5046406;28;20045;-77
2021/04/02 05:10:52;;;;;;;7.53;1.40;;;2.80;99.90;;;;;;5046874;28;20126;-77
2021/04/02 05:13:21;;;;;;;7.10;1.33;;;2.70;99.90;;;;;;5025464;28;20034;-77
2021/04/02 05:15:49;;;;;;;6.18;1.40;;;2.70;99.90;;;;;;5026171;28;20041;-77
2021/04/02 05:18:16;;;;;;;10.32;2.55;;;2.70;99.90;;;;;;5026106;28;20026;-77
2021/04/02 05:20:44;;;;;;;8.52;0.90;;;2.70;99.90;;;;;;5026906;28;20044;-77
2021/04/02 05:23:11;;;;;;;6.68;1.35;;;2.70;99.90;;;;;;5025378;28;20045;-77
2021/04/02 05:25:37;;;;;;;8.00;1.10;;;2.70;99.90;;;;;;5026458;28;20074;-77
2021/04/02 05:28:04;;;;;;;6.72;0.90;;;2.70;99.90;;;;;;5026571;28;20188;-77
2021/04/02 05:30:30;;;;;;;5.40;0.93;;;2.70;99.90;;;;;;5026511;28;20053;-77
2021/04/02 05:32:57;;;;;;;4.60;0.73;;;2.70;99.90;;;;;;5008869;28;20116;-77
2021/04/02 05:35:22;;;;;;;5.65;1.23;;;2.70;99.90;;;;;;5024748;28;20101;-77
2021/04/02 05:37:48;;;;;;;4.78;0.82;;;2.70;99.90;;;;;;4992620;28;20025;-77
2021/04/02 05:40:16;;;;;;;5.57;0.98;;;2.70;99.90;;;;;;5025096;28;20034;-77
2021/04/02 05:42:52;;;;;;;8.38;1.20;;;2.70;99.90;;;;;;5042273;28;20017;-77
2021/04/02 05:45:18;;;;;;;4.32;1.00;;;2.70;99.90;;;;;;5027746;28;20045;-77
2021/04/02 05:47:47;;;;;;;6.03;1.40;;;2.70;99.90;;;;;;5042924;28;20030;-77
2021/04/02 05:50:14;;;;;;;7.50;1.48;;;2.70;99.90;;;;;;5039879;28;20143;-77
2021/04/02 05:52:44;;;;;;;3.03;0.70;;;2.70;99.90;;;;;;5026816;28;20056;-77
2021/04/02 05:55:11;;;;;;;5.72;1.10;;;2.70;99.90;;;;;;5037802;28;20041;-77
2021/04/02 05:57:38;;;;;;;6.25;1.00;;;2.80;99.90;;;;;;5028067;28;20034;-77
2021/04/02 06:00:07;;;;;;;4.60;0.93;;;2.90;99.90;;;;;;5045745;28;20044;-77
2021/04/02 06:02:39;;;;;;;7.00;1.30;;;2.90;99.90;;;;;;5044756;28;20097;-77
2021/04/02 06:05:05;;;;;;;6.05;0.73;;;2.90;99.90;;;;;;5027473;28;20092;-77
2021/04/02 06:07:32;;;;;;;5.10;0.82;;;3.00;99.90;;;;;;5041973;28;20045;-77
2021/04/02 06:09:58;;;;;;;4.05;0.70;;;3.10;99.90;;;;;;5011279;28;20040;-77
2021/04/02 06:12:25;;;;;;;7.57;0.77;;;3.10;99.90;;;;;;5031248;28;20042;-77
2021/04/02 06:14:51;;;;;;;4.22;1.42;;;3.10;99.90;;;;;;5023993;28;20117;-77
2021/04/02 06:17:17;;;;;;;4.00;0.60;;;3.20;99.90;;;;;;5025129;28;20061;-77
2021/04/02 06:19:43;;;;;;;3.03;0.90;;;3.30;99.90;;;;;;5007523;28;20065;-77
2021/04/02 06:22:09;;;;;;;4.43;0.90;;;3.40;99.90;;;;;;5024236;28;20029;-77
2021/04/02 06:24:40;;;;;;;4.65;0.85;;;3.40;99.90;;;;;;5024061;28;20030;-77
2021/04/02 06:27:09;;;;;;;3.88;0.80;;;3.50;99.90;;;;;;5025183;28;20097;-77
2021/04/02 06:29:42;;;;;;;10.13;1.25;;;3.60;99.90;;;;;;5023824;28;20105;-78
2021/04/02 06:32:11;;;;;;;5.53;0.70;;;3.60;99.90;;;;;;5023672;28;20164;-77
2021/04/02 06:34:47;;;;;;;4.35;0.75;;;3.70;99.90;;;;;;5023421;28;20044;-77
2021/04/02 06:37:15;;;;;;;5.20;0.63;;;3.70;99.90;;;;;;4994103;28;20535;-77
2021/04/02 06:39:52;;;;;;;2.35;0.70;;;3.90;99.90;;;;;;5025932;28;20026;-78
2021/04/02 06:42:31;;;;;;;6.85;1.00;;;4.00;99.90;;;;;;5020409;28;20030;-77
2021/04/02 06:45:01;;;;;;;5.53;0.73;;;4.00;99.90;;;;;;5037319;28;20034;-78
2021/04/02 06:47:38;;;;;;;7.05;1.10;;;4.10;99.90;;;;;;5019399;28;20036;-78
2021/04/02 06:50:18;;;;;;;5.15;1.00;;;4.20;99.90;;;;;;5019394;28;20029;-78
2021/04/02 06:52:55;;;;;;;5.70;0.80;;;4.30;99.90;;;;;;5025635;28;20064;-78
2021/04/02 06:55:22;;;;;;;7.05;1.63;;;4.40;99.90;;;;;;5022901;28;20060;-78
2021/04/02 06:57:53;;;;;;;7.03;1.30;;;4.50;99.90;;;;;;5032860;28;20096;-78
2021/04/02 07:00:21;;;;;;;5.68;0.55;;;4.60;99.90;;;;;;5023806;28;20072;-78
2021/04/02 07:02:49;;;;;;;3.47;0.50;;;4.70;99.90;;;;;;5033457;28;20045;-78
2021/04/02 07:05:41;;;;;;;5.30;0.82;;;4.80;99.90;;;;;;5034742;28;20065;-78
2021/04/02 07:08:07;;;;;;;5.22;0.82;;;4.80;99.90;;;;;;5036070;28;20041;-77
2021/04/02 07:10:37;;;;;;;5.00;0.90;;;4.90;99.90;;;;;;5021961;28;20049;-78
2021/04/02 07:13:05;;;;;;;5.05;0.77;;;5.00;99.90;;;;;;5034587;28;20072;-78
2021/04/02 07:15:35;;;;;;;3.38;0.52;;;5.20;99.90;;;;;;5036111;28;20528;-78
2021/04/02 07:18:04;;;;;;;4.20;0.60;;;5.30;99.90;;;;;;5036091;28;20030;-78
2021/04/02 07:20:31;;;;;;;8.63;0.93;;;5.40;99.90;;;;;;5024102;28;20056;-78
2021/04/02 07:22:58;;;;;;;4.65;0.50;;;5.50;99.90;;;;;;5033246;28;20284;-78
2021/04/02 07:25:24;;;;;;;4.88;0.50;;;5.70;99.90;;;;;;5036568;28;20068;-78
2021/04/02 07:27:51;;;;;;;8.63;0.63;;;5.70;99.90;;;;;;5032299;28;20037;-78
2021/04/02 07:30:18;;;;;;;5.45;0.68;;;5.80;99.90;;;;;;5036601;28;20045;-78
2021/04/02 07:32:44;;;;;;;6.32;0.70;;;5.70;99.90;;;;;;5034674;28;20089;-78
2021/04/02 07:35:17;;;;;;;3.40;0.50;;;5.90;99.90;;;;;;5037069;28;20044;-78
2021/04/02 07:37:54;;;;;;;7.32;0.80;;;5.80;99.90;;;;;;5039368;28;20060;-78
2021/04/02 07:40:34;;;;;;;8.00;1.08;;;5.90;99.90;;;;;;5031485;28;20033;-78
2021/04/02 07:43:05;;;;;;;5.18;0.68;;;5.90;99.90;;;;;;5004491;28;20033;-78
2021/04/02 07:45:32;;;;;;;6.07;0.70;;;6.10;99.90;;;;;;5040343;28;20050;-78
2021/04/02 07:48:14;;;;;;;5.13;0.50;;;6.30;99.90;;;;;;5037173;28;20108;-78
2021/04/02 07:50:54;;;;;;;4.35;0.40;;;6.50;99.90;;;;;;5018351;28;20029;-77
2021/04/02 07:53:40;;;;;;;6.18;0.50;;;6.30;99.90;;;;;;5034887;28;20030;-78
2021/04/02 07:56:17;;;;;;;5.75;0.70;;;6.40;99.90;;;;;;5037992;28;20051;-78
2021/04/02 07:58:49;;;;;;;4.13;0.45;;;6.30;99.90;;;;;;5044186;28;20029;-78
2021/04/02 08:01:19;;;;;;;6.65;0.50;;;6.50;99.90;;;;;;5038307;28;20056;-78
2021/04/02 08:03:46;;;;;;;3.08;0.40;;;6.70;99.90;;;;;;5036762;28;20029;-78
2021/04/02 08:06:29;;;;;;;6.13;0.55;;;6.90;99.90;;;;;;5036192;28;20084;-78
2021/04/02 08:08:54;;;;;;;5.20;0.70;;;6.90;99.90;;;;;;5003719;28;20128;-77
2021/04/02 08:11:29;;;;;;;7.15;0.60;;;6.70;99.90;;;;;;5041334;28;20029;-78
2021/04/02 08:14:08;;;;;;;4.38;0.50;;;6.70;99.90;;;;;;5026353;28;20026;-79
2021/04/02 08:16:42;;;;;;;;;;;6.70;99.90;;;;;;5035372;28;20022;-78
2021/04/02 08:19:29;;;;;;;5.25;0.57;;;6.30;99.90;;;;;;5028651;28;19987;-79
2021/04/02 08:22:00;;;;;;;7.57;1.05;;;6.40;99.90;;;;;;5026482;28;20034;-79
2021/04/02 08:24:29;;;;;;;5.85;1.27;;;6.40;99.90;;;;;;5026221;28;20036;-79
2021/04/02 08:26:55;;;;;;;7.20;0.40;;;6.70;99.90;;;;;;5009814;28;20046;-80
2021/04/02 08:29:23;;;;;;;4.40;0.40;;;6.90;99.90;;;;;;5027380;28;20447;-80
2021/04/02 08:31:54;;;;;;;3.63;0.35;;;7.20;99.90;;;;;;5009679;28;20146;-79
2021/04/02 08:34:24;;;;;;;3.05;0.50;;;7.10;99.90;;;;;;5025612;28;20053;-79
2021/04/02 08:36:54;;;;;;;11.18;0.52;;;6.80;99.90;;;;;;5009418;28;20036;-80
2021/04/02 08:39:23;;;;;;;;;;;6.70;99.90;;;;;;5027640;28;20076;-78
2021/04/02 08:41:50;;;;;;;5.45;0.70;;;6.80;99.90;;;;;;5011619;28;19913;-78
2021/04/02 08:44:15;;;;;;;8.02;0.77;;;6.60;99.90;;;;;;5026454;28;20030;-79
2021/04/02 08:46:46;;;;;;;6.88;0.60;;;6.60;99.90;;;;;;5010636;28;20090;-78
2021/04/02 08:49:12;;;;;;;;;;;6.50;99.90;;;;;;5025705;28;20029;-78
2021/04/02 08:51:38;;;;;;;3.80;0.50;;;6.30;99.90;;;;;;5033067;28;19925;-78
2021/04/02 08:54:12;;;;;;;3.15;0.40;;;6.60;99.90;;;;;;5025589;28;20060;-79
2021/04/02 08:56:38;;;;;;;5.22;0.50;;;6.80;99.90;;;;;;5027251;28;20026;-79
2021/04/02 08:59:08;;;;;;;8.80;0.50;;;6.70;99.90;;;;;;5028278;28;20566;-78
2021/04/02 09:01:36;;;;;;;3.67;0.55;;;6.90;99.90;;;;;;5029238;28;20036;-78
2021/04/02 09:04:05;;;;;;;2.75;0.50;;;6.90;99.90;;;;;;5028533;28;20081;-79
2021/04/02 09:06:31;;;;;;;2.03;0.50;;;7.10;99.90;;;;;;5026557;28;20056;-78
2021/04/02 09:08:56;;;;;;;4.80;0.60;;;7.20;99.90;;;;;;5024524;28;20041;-78
2021/04/02 09:11:22;;;;;;;4.85;0.50;;;6.90;99.90;;;;;;5025756;28;20524;-79
2021/04/02 09:13:52;;;;;;;4.15;0.50;;;6.50;99.90;;;;;;5044872;28;20033;-79
2021/04/02 09:16:19;;;;;;;4.68;0.50;;;6.40;99.90;;;;;;5044991;28;20061;-79
2021/04/02 09:18:54;;;;;;;7.72;0.98;;;6.40;99.90;;;;;;5011823;28;20470;-79
2021/04/02 09:21:22;;;;;;;5.00;0.52;;;6.50;99.90;;;;;;5025262;28;20470;-78
2021/04/02 09:23:49;;;;;;;2.22;0.50;;;6.60;99.90;;;;;;5025914;28;20114;-78
2021/04/02 09:26:16;;;;;;;6.00;0.60;;;6.40;99.90;;;;;;5044844;28;20045;-78
2021/04/02 09:28:42;;;;;;;7.38;0.70;;;6.30;99.90;;;;;;5044933;28;20049;-79
2021/04/02 09:31:25;;;;;;;5.30;0.73;;;6.40;99.90;;;;;;5044863;28;20057;-79
2021/04/02 09:33:57;;;;;;;7.97;0.77;;;6.50;99.90;;;;;;5044915;28;20037;-79
2021/04/02 09:36:30;;;;;;;7.50;0.50;;;6.30;99.90;;;;;;5028204;28;20053;-79
2021/04/02 09:39:12;;;;;;;4.00;0.60;;;6.50;99.90;;;;;;5014806;28;20026;-79
2021/04/02 09:41:42;;;;;;;5.30;0.63;;;6.60;99.90;;;;;;5031360;28;20086;-79
2021/04/02 09:44:14;;;;;;;5.00;1.00;;;6.50;99.90;;;;;;5027781;28;20509;-79
2021/04/02 09:46:44;;;;;;;5.13;0.75;;;6.60;99.90;;;;;;5028257;28;20053;-79
2021/04/02 09:49:13;;;;;;;4.90;0.63;;;6.60;99.90;;;;;;5027529;28;20033;-79
2021/04/02 09:51:44;;;;;;;5.25;0.95;;;6.50;99.90;;;;;;5035381;28;20033;-79
2021/04/02 09:54:12;;;;;;;12.32;2.42;;;6.50;99.90;;;;;;5046126;28;20022;-79
2021/04/02 09:56:39;;;;;;;6.68;1.42;;;6.40;99.90;;;;;;5044460;28;20033;-80
2021/04/02 09:59:06;;;;;;;7.57;1.60;;;6.40;99.90;;;;;;5027655;28;20045;-79
2021/04/02 10:01:32;;;;;;;4.93;1.13;;;6.50;99.90;;;;;;5027603;28;20029;-79
2021/04/02 10:03:58;;;;;;;5.85;1.00;;;6.40;99.90;;;;;;5044461;28;20108;-79
2021/04/02 10:06:24;;;;;;;4.50;1.17;;;6.40;99.90;;;;;;5034667;22;20063;-79
2021/04/02 10:08:49;;;;;;;8.77;1.50;;;6.30;99.90;;;;;;5051352;28;20059;-79
2021/04/02 10:11:15;;;;;;;7.72;0.80;;;6.30;99.90;;;;;;5068137;28;20036;-79
2021/04/02 10:13:41;;;;;;;5.25;1.48;;;6.60;99.90;;;;;;5067823;28;20037;-79
2021/04/02 10:16:07;;;;;;;6.63;1.85;;;6.70;99.90;;;;;;5084491;28;20025;-78
2021/04/02 10:18:33;;;;;;;13.38;2.08;;;6.70;99.90;;;;;;5067761;28;20028;-79
2021/04/02 10:20:58;;;;;;;9.57;1.80;;;6.60;99.90;;;;;;5049549;28;20043;-79
2021/04/02 10:23:24;;;;;;;6.25;1.00;;;6.70;99.90;;;;;;5067942;28;20036;-78
2021/04/02 10:25:50;;;;;;;5.95;1.20;;;6.80;99.90;;;;;;5067841;28;20041;-79
2021/04/02 10:28:16;;;;;;;9.63;2.00;;;6.80;99.90;;;;;;5067495;28;20032;-79
2021/04/02 10:30:42;;;;;;;7.60;1.30;;;6.70;99.90;;;;;;5050883;28;20056;-79
2021/04/02 10:33:07;;;;;;;6.68;1.50;;;6.90;99.90;;;;;;5067886;28;20038;-79
2021/04/02 10:35:35;;;;;;;8.13;1.88;;;7.00;99.90;;;;;;5058554;28;20052;-79
2021/04/02 10:38:00;;;;;;;9.85;1.88;;;6.90;99.90;;;;;;5047493;28;20162;-79
2021/04/02 10:40:27;;;;;;;7.82;1.48;;;6.70;99.90;;;;;;5049503;28;20084;-79
2021/04/02 10:42:54;;;;;;;6.93;0.85;;;7.30;99.90;;;;;;5054098;28;20204;-79
2021/04/02 10:45:19;;;;;;;9.98;1.95;;;7.40;99.90;;;;;;5059965;28;20047;-79
2021/04/02 10:47:45;;;;;;;15.95;1.60;;;7.20;99.90;;;;;;5041452;28;20044;-78
2021/04/02 10:50:13;;;;;;;10.48;2.45;;;7.10;99.90;;;;;;5062583;28;20029;-79
2021/04/02 10:52:39;;;;;;;7.47;1.77;;;6.90;99.90;;;;;;5075258;28;20063;-78
2021/04/02 10:55:08;;;;;;;10.52;2.25;;;6.90;99.90;;;;;;5066903;28;20025;-78
2021/04/02 10:57:33;;;;;;;7.20;1.42;;;6.80;99.90;;;;;;5082039;28;20036;-77
2021/04/02 11:00:01;;;;;;;7.68;1.48;;;7.00;99.90;;;;;;5083492;28;20043;-78
2021/04/02 11:02:26;;;;;;;4.72;1.25;;;7.30;99.90;;;;;;5060747;28;20502;-77
2021/04/02 11:04:52;;;;;;;9.95;1.77;;;7.50;99.90;;;;;;5058898;28;20035;-77
2021/04/02 11:07:17;;;;;;;9.20;1.70;;;7.40;99.90;;;;;;5075572;28;20120;-78
2021/04/02 11:09:43;;;;;;;6.80;1.23;;;7.20;99.90;;;;;;5053825;28;20104;-78
2021/04/02 11:12:09;;;;;;;8.48;1.48;;;7.30;99.90;;;;;;5053954;28;20036;-78
2021/04/02 11:14:34;;;;;;;10.40;1.77;;;7.40;99.90;;;;;;5088386;28;20036;-78
2021/04/02 11:17:00;;;;;;;9.07;0.90;;;7.50;99.90;;;;;;5053745;28;20021;-78
2021/04/02 11:19:26;;;;;;;6.47;1.00;;;7.40;99.90;;;;;;5068200;28;20055;-78
2021/04/02 11:21:52;;;;;;;7.25;1.30;;;7.50;99.90;;;;;;5045454;28;20039;-78
2021/04/02 11:24:17;;;;;;;4.03;0.70;;;7.90;99.90;;;;;;5070619;28;20046;-78
2021/04/02 11:26:43;;;;;;;5.78;1.00;;;8.00;99.90;;;;;;5070447;28;20071;-78
2021/04/02 11:29:08;;;;;;;6.22;0.98;;;8.00;99.90;;;;;;5053730;28;20238;-78
2021/04/02 11:31:34;;;;;;;6.47;0.80;;;7.90;99.90;;;;;;5039129;28;20497;-78
2021/04/02 11:34:00;;;;;;;3.67;0.80;;;7.90;99.90;;;;;;5061988;28;20035;-77
2021/04/02 11:36:25;;;;;;;10.43;1.10;;;7.80;99.90;;;;;;5073253;28;20025;-78
2021/04/02 11:38:51;;;;;;;5.15;1.00;;;8.10;99.90;;;;;;5053275;28;20100;-78
2021/04/02 11:41:16;;;;;;;7.70;0.73;;;8.10;99.90;;;;;;5064321;28;20025;-78
2021/04/02 11:43:42;;;;;;;6.97;0.80;;;8.00;99.90;;;;;;5059157;28;20035;-77
2021/04/02 11:46:08;;;;;;;10.50;0.95;;;8.20;99.90;;;;;;5075018;28;20036;-79
2021/04/02 11:48:34;;;;;;;7.40;0.68;;;8.10;99.90;;;;;;5065950;28;20127;-78
2021/04/02 11:50:59;;;;;;;5.57;0.95;;;8.10;99.90;;;;;;5037671;28;20059;-79
2021/04/02 11:53:25;;;;;;;8.80;1.30;;;8.10;99.90;;;;;;5062024;28;20100;-79
2021/04/02 11:55:51;;;;;;;9.65;0.90;;;8.10;99.90;;;;;;5064563;28;20036;-79
2021/04/02 11:58:16;;;;;;;7.75;0.88;;;7.90;99.90;;;;;;5062975;28;20033;-79
2021/04/02 12:00:43;;;;;;;5.57;0.75;;;8.10;99.90;;;;;;5067996;28;20041;-79
2021/04/02 12:03:09;;;;;;;9.52;1.30;;;8.60;99.90;;;;;;5061660;28;20032;-79
2021/04/02 12:05:54;;;;;;;4.80;0.70;;;8.60;99.90;;;;;;5063600;28;20082;-78
2021/04/02 12:08:20;;;;;;;7.05;1.08;;;9.10;99.90;;;;;;5004374;28;20053;-78
2021/04/02 12:10:47;;;;;;;7.45;0.80;;;9.10;99.90;;;;;;5004426;28;20422;-79
2021/04/02 12:13:12;;;;;;;6.05;0.98;;;9.30;99.90;;;;;;5001241;28;20057;-79
2021/04/02 12:15:38;;;;;;;6.32;1.00;;;9.70;99.90;;;;;;5004356;28;20086;-79
2021/04/02 12:18:05;;;;;;;3.38;0.75;;;9.30;99.90;;;;;;5004605;28;20085;-79
2021/04/02 12:20:31;;;;;;;4.20;0.93;;;9.40;99.90;;;;;;5002465;28;20137;-79
2021/04/02 12:22:57;;;;;;;8.00;0.80;;;9.20;99.90;;;;;;5001079;28;20046;-79
2021/04/02 12:25:23;;;;;;;4.43;0.93;;;9.60;99.90;;;;;;5004000;28;20057;-79
2021/04/02 12:27:49;;;;;;;3.60;0.82;;;9.50;99.90;;;;;;4989787;28;20255;-78
2021/04/02 12:30:16;;;;;;;6.57;0.82;;;10.00;99.90;;;;;;5003864;28;20097;-78
2021/04/02 12:32:42;;;;;;;8.10;0.70;;;9.60;99.90;;;;;;4983609;28;20102;-79
2021/04/02 12:35:13;;;;;;;5.43;0.60;;;9.40;99.90;;;;;;4999122;28;20026;-79
2021/04/02 12:37:39;;;;;;;5.05;0.90;;;9.40;99.90;;;;;;4987970;28;20338;-79
2021/04/02 12:40:21;;;;;;;7.47;0.80;;;9.30;99.90;;;;;;4982373;28;20688;-78
2021/04/02 12:42:47;;;;;;;10.45;1.05;;;9.30;99.90;;;;;;4998992;28;20035;-79
2021/04/02 12:45:13;;;;;;;4.05;0.57;;;8.80;99.90;;;;;;5024590;28;20096;-80
2021/04/02 12:47:40;;;;;;;4.95;0.60;;;8.70;99.90;;;;;;5062229;28;20040;-78
2021/04/02 12:50:12;;;;;;;6.97;1.55;;;8.70;99.90;;;;;;5047674;28;20076;-79
2021/04/02 12:52:39;;;;;;;8.43;1.15;;;8.90;99.90;;;;;;5052280;28;20124;-79
2021/04/02 12:55:07;;;;;;;5.07;0.70;;;8.70;99.90;;;;;;5050323;28;20029;-79
2021/04/02 12:57:33;;;;;;;6.35;0.70;;;8.50;99.90;;;;;;5074304;28;20063;-80
2021/04/02 12:59:59;;;;;;;4.80;1.00;;;8.60;99.90;;;;;;5075592;28;20025;-79
2021/04/02 13:02:24;;;;;;;5.75;0.90;;;8.50;99.90;;;;;;5057324;28;20025;-80
2021/04/02 13:04:50;;;;;;;10.82;1.20;;;8.50;99.90;;;;;;5057626;28;20029;-79
2021/04/02 13:07:15;;;;;;;6.80;0.85;;;8.40;99.90;;;;;;5048596;22;20045;-78